createdAt,value
2023-02-12T00:01:34.579Z,33.60
2023-02-12T00:04:07.513Z,33.22
2023-02-12T00:06:40.585Z,34.47
2023-02-12T00:09:13.378Z,36.05
2023-02-12T00:11:46.243Z,33.22
2023-02-12T00:14:19.197Z,36.58
2023-02-12T00:16:53.337Z,34.15
2023-02-12T00:19:26.168Z,30.42
2023-02-12T00:21:58.997Z,31.50
2023-02-12T00:24:32.053Z,32.00
2023-02-12T00:27:04.934Z,35.38
2023-02-12T00:29:38.438Z,33.05
2023-02-12T00:32:14.210Z,37.35
2023-02-12T00:34:47.331Z,29.83
2023-02-12T00:37:22.118Z,29.52
2023-02-12T00:39:54.923Z,30.67
2023-02-12T00:42:27.816Z,31.85
2023-02-12T00:45:01.986Z,37.45
2023-02-12T00:47:38.473Z,34.42
2023-02-12T00:50:12.308Z,31.92
2023-02-12T00:52:46.960Z,30.10
2023-02-12T00:55:20.116Z,42.55
2023-02-12T00:57:52.903Z,41.25
2023-02-12T01:00:26.325Z,38.83
2023-02-12T01:03:00.796Z,36.78
2023-02-12T01:05:34.031Z,39.20
2023-02-12T01:08:06.863Z,36.70
2023-02-12T01:10:39.686Z,37.90
2023-02-12T01:13:14.900Z,42.50
2023-02-12T01:15:47.825Z,38.08
2023-02-12T01:18:22.575Z,35.88
2023-02-12T01:20:55.435Z,39.28
2023-02-12T01:23:29.752Z,36.65
2023-02-12T01:26:02.632Z,32.92
2023-02-12T01:28:35.504Z,33.55
2023-02-12T01:31:13.023Z,38.60
2023-02-12T01:33:48.986Z,34.13
2023-02-12T01:36:22.693Z,37.13
2023-02-12T01:38:56.623Z,38.05
2023-02-12T01:41:31.141Z,36.75
2023-02-12T01:44:15.497Z,36.60
2023-02-12T01:46:49.992Z,40.42
2023-02-12T01:49:28.113Z,41.40
2023-02-12T01:52:06.156Z,40.00
2023-02-12T01:54:39.388Z,38.88
2023-02-12T01:57:13.935Z,37.55
2023-02-12T01:59:51.722Z,38.20
2023-02-12T02:02:26.365Z,35.92
2023-02-12T02:05:03.884Z,38.17
2023-02-12T02:07:36.876Z,33.42
2023-02-12T02:10:11.034Z,37.03
2023-02-12T02:13:01.344Z,31.23
2023-02-12T02:15:34.406Z,36.13
2023-02-12T02:18:17.020Z,31.30
2023-02-12T02:21:28.345Z,35.40
2023-02-12T02:24:34.143Z,33.42
2023-02-12T02:27:20.621Z,33.67
2023-02-12T02:30:23.615Z,34.58
2023-02-12T02:33:08.005Z,33.72
2023-02-12T02:35:45.436Z,31.05
2023-02-12T02:38:26.752Z,32.83
2023-02-12T02:41:05.887Z,35.63
2023-02-12T02:43:45.176Z,32.72
2023-02-12T02:46:25.714Z,41.97
2023-02-12T02:49:03.157Z,33.40
2023-02-12T02:51:44.227Z,35.38
2023-02-12T02:54:20.445Z,36.92
2023-02-12T02:56:58.359Z,31.23
2023-02-12T02:59:36.630Z,32.08
2023-02-12T03:02:17.029Z,36.17
2023-02-12T03:07:30.632Z,30.55
2023-02-12T03:10:08.477Z,35.33
2023-02-12T03:12:47.729Z,34.17
2023-02-12T03:15:25.349Z,37.97
2023-02-12T03:18:01.366Z,35.85
2023-02-12T03:20:40.853Z,29.13
2023-02-12T03:23:17.523Z,34.33
2023-02-12T03:25:57.042Z,34.30
2023-02-12T03:28:32.613Z,37.13
2023-02-12T03:31:11.690Z,39.17
2023-02-12T03:33:55.572Z,35.45
2023-02-12T03:36:36.609Z,31.15
2023-02-12T03:39:14.643Z,34.47
2023-02-12T03:41:55.224Z,34.90
2023-02-12T03:44:40.842Z,35.03
2023-02-12T03:47:20.165Z,34.88
2023-02-12T03:50:02.062Z,36.83
2023-02-12T03:52:35.587Z,35.70
2023-02-12T03:55:09.307Z,37.60
2023-02-12T03:57:45.476Z,39.47
2023-02-12T04:00:21.852Z,39.15
2023-02-12T04:02:56.037Z,31.45
2023-02-12T04:05:30.168Z,36.45
2023-02-12T04:08:12.739Z,35.20
2023-02-12T04:10:58.821Z,30.02
2023-02-12T04:13:40.788Z,34.25
2023-02-12T04:16:22.441Z,34.53
2023-02-12T04:18:56.311Z,33.60
2023-02-12T04:21:44.556Z,31.60
2023-02-12T04:24:25.339Z,34.55
2023-02-12T04:27:03.296Z,36.05
2023-02-12T04:29:46.339Z,35.00
2023-02-12T04:32:25.518Z,37.95
2023-02-12T04:35:03.077Z,36.80
2023-02-12T04:37:42.377Z,34.78
2023-02-12T04:40:17.650Z,35.17
2023-02-12T04:42:52.296Z,38.63
2023-02-12T04:45:28.193Z,38.15
2023-02-12T04:48:01.249Z,38.22
2023-02-12T04:50:40.341Z,37.15
2023-02-12T04:53:14.763Z,35.35
2023-02-12T04:55:49.465Z,31.63
2023-02-12T04:58:22.450Z,33.65
2023-02-12T05:00:55.396Z,35.90
2023-02-12T05:03:28.706Z,33.90
2023-02-12T05:06:04.774Z,31.92
2023-02-12T05:08:39.187Z,30.65
2023-02-12T05:11:13.378Z,34.25
2023-02-12T05:13:49.877Z,39.45
2023-02-12T05:16:23.205Z,30.63
2023-02-12T05:18:56.067Z,34.28
2023-02-12T05:21:29.266Z,31.58
2023-02-12T05:24:04.149Z,33.97
2023-02-12T05:26:38.960Z,36.83
2023-02-12T05:29:11.968Z,36.95
2023-02-12T05:31:45.980Z,33.42
2023-02-12T05:34:19.034Z,37.25
2023-02-12T05:36:51.956Z,41.08
2023-02-12T05:39:26.448Z,35.63
2023-02-12T05:41:59.361Z,33.08
2023-02-12T05:44:32.234Z,38.15
2023-02-12T05:47:05.085Z,39.90
2023-02-12T05:49:38.336Z,45.17
2023-02-12T05:52:11.100Z,39.00
2023-02-12T05:54:45.586Z,39.63
2023-02-12T05:57:18.641Z,38.20
2023-02-12T05:59:51.746Z,38.88
2023-02-12T06:02:24.630Z,37.13
2023-02-12T06:04:57.695Z,41.88
2023-02-12T06:07:30.848Z,39.00
2023-02-12T06:10:09.704Z,41.35
2023-02-12T06:12:42.823Z,38.25
2023-02-12T06:15:15.931Z,40.13
2023-02-12T06:17:49.040Z,39.72
2023-02-12T06:20:22.147Z,40.13
2023-02-12T06:22:55.173Z,34.13
2023-02-12T06:25:29.499Z,39.42
2023-02-12T06:28:02.566Z,40.03
2023-02-12T06:30:35.945Z,41.65
2023-02-12T06:33:08.803Z,40.55
2023-02-12T06:35:41.824Z,40.15
2023-02-12T06:38:14.841Z,38.88
2023-02-12T06:40:49.297Z,43.42
2023-02-12T06:43:22.103Z,42.20
2023-02-12T06:45:55.409Z,42.05
2023-02-12T06:48:30.309Z,37.70
2023-02-12T06:51:08.452Z,42.85
2023-02-12T06:53:41.534Z,38.17
2023-02-12T06:56:15.760Z,40.63
2023-02-12T06:58:52.894Z,38.40
2023-02-12T07:01:27.692Z,41.42
2023-02-12T07:04:02.246Z,41.05
2023-02-12T07:06:37.007Z,37.72
2023-02-12T07:09:09.820Z,44.75
2023-02-12T07:11:44.009Z,42.60
2023-02-12T07:14:17.913Z,45.03
2023-02-12T07:16:51.038Z,40.55
2023-02-12T07:19:24.303Z,41.55
2023-02-12T07:21:57.132Z,39.58
2023-02-12T07:24:30.040Z,39.55
2023-02-12T07:27:04.148Z,38.03
2023-02-12T07:29:36.983Z,41.72
2023-02-12T07:32:09.894Z,36.05
2023-02-12T07:34:42.774Z,40.20
2023-02-12T07:37:15.751Z,40.92
2023-02-12T07:39:48.591Z,39.83
2023-02-12T07:42:22.707Z,40.13
2023-02-12T07:44:56.404Z,38.53
2023-02-12T07:47:29.232Z,35.78
2023-02-12T07:50:02.040Z,40.40
2023-02-12T07:52:35.404Z,41.50
2023-02-12T07:55:09.203Z,42.40
2023-02-12T07:57:43.452Z,35.40
2023-02-12T08:00:17.337Z,42.33
2023-02-12T08:02:54.119Z,37.28
2023-02-12T08:05:26.935Z,43.30
2023-02-12T08:07:59.704Z,44.65
2023-02-12T08:10:32.609Z,43.63
2023-02-12T08:13:06.746Z,42.97
2023-02-12T08:15:39.534Z,43.35
2023-02-12T08:18:12.361Z,41.42
2023-02-12T08:20:45.195Z,42.45
2023-02-12T08:23:21.189Z,40.33
2023-02-12T08:25:54.184Z,39.50
2023-02-12T08:28:29.969Z,41.10
2023-02-12T08:31:03.264Z,44.97
2023-02-12T08:33:36.127Z,42.80
2023-02-12T08:36:11.421Z,45.72
2023-02-12T08:38:46.346Z,43.42
2023-02-12T08:41:21.744Z,45.78
2023-02-12T08:43:57.593Z,49.85
2023-02-12T08:46:32.725Z,43.92
2023-02-12T08:49:09.464Z,43.20
2023-02-12T08:51:44.568Z,42.47
2023-02-12T08:54:20.732Z,48.33
2023-02-12T08:56:56.370Z,46.80
2023-02-12T08:59:31.260Z,48.30
2023-02-12T09:02:08.826Z,52.15
2023-02-12T09:04:41.665Z,47.95
2023-02-12T09:07:14.462Z,48.83
2023-02-12T09:09:47.334Z,48.05
2023-02-12T09:12:20.404Z,52.53
2023-02-12T09:14:54.730Z,49.05
2023-02-12T09:17:27.610Z,49.17
2023-02-12T09:20:01.526Z,48.15
2023-02-12T09:22:38.110Z,44.88
2023-02-12T09:25:11.045Z,46.78
2023-02-12T09:27:43.926Z,44.97
2023-02-12T09:30:18.949Z,48.47
2023-02-12T09:32:51.741Z,47.67
2023-02-12T09:35:24.940Z,50.17
2023-02-12T09:37:57.976Z,51.38
2023-02-12T09:40:37.782Z,48.33
2023-02-12T09:43:19.613Z,49.75
2023-02-12T09:45:59.403Z,49.97
2023-02-12T09:48:44.030Z,49.85
2023-02-12T09:51:17.173Z,45.95
2023-02-12T09:53:52.757Z,47.47
2023-02-12T09:56:27.915Z,45.53
2023-02-12T09:59:03.899Z,39.63
2023-02-12T10:01:38.184Z,50.30
2023-02-12T10:04:11.200Z,49.15
2023-02-12T10:06:52.914Z,44.63
2023-02-12T10:09:39.503Z,46.83
2023-02-12T10:12:21.463Z,50.13
2023-02-12T10:15:18.041Z,49.25
2023-02-12T10:18:04.623Z,51.97
2023-02-12T10:20:49.233Z,54.03
2023-02-12T10:23:34.629Z,44.75
2023-02-12T10:26:16.499Z,42.28
2023-02-12T10:28:50.805Z,42.30
2023-02-12T10:31:30.649Z,42.85
2023-02-12T10:34:15.189Z,42.70
2023-02-12T10:36:49.966Z,51.00
2023-02-12T10:39:25.055Z,48.40
2023-02-12T10:42:03.475Z,42.85
2023-02-12T10:44:36.352Z,44.03
2023-02-12T10:47:18.768Z,39.72
2023-02-12T10:49:57.768Z,37.60
2023-02-12T10:52:40.580Z,42.00
2023-02-12T10:55:29.218Z,40.53
2023-02-12T10:58:05.448Z,42.60
2023-02-12T11:00:40.040Z,38.28
2023-02-12T11:03:23.756Z,37.20
2023-02-12T11:05:58.316Z,38.00
2023-02-12T11:08:34.853Z,36.88
2023-02-12T11:11:11.683Z,34.30
2023-02-12T11:13:50.826Z,37.20
2023-02-12T11:16:29.563Z,34.80
2023-02-12T11:19:05.806Z,31.98
2023-02-12T11:21:40.015Z,38.08
2023-02-12T11:24:24.097Z,36.38
2023-02-12T11:27:13.411Z,30.98
2023-02-12T11:29:49.018Z,34.53
2023-02-12T11:32:21.945Z,28.13
2023-02-12T11:35:07.322Z,31.80
2023-02-12T11:37:44.196Z,33.72
2023-02-12T11:40:21.191Z,37.95
2023-02-12T11:42:57.758Z,35.63
2023-02-12T11:45:35.637Z,35.42
2023-02-12T11:48:19.157Z,35.25
2023-02-12T11:50:54.631Z,38.33
2023-02-12T11:53:32.260Z,37.25
2023-02-12T11:56:07.107Z,37.00
2023-02-12T11:58:40.801Z,31.85
2023-02-12T12:01:19.719Z,27.92
2023-02-12T12:04:01.821Z,28.55
2023-02-12T12:06:37.526Z,26.67
2023-02-12T12:09:19.187Z,27.60
2023-02-12T12:12:01.070Z,22.27
2023-02-12T12:15:00.519Z,22.83
2023-02-12T12:18:03.012Z,28.25
2023-02-12T12:20:42.251Z,25.63
2023-02-12T12:23:19.895Z,27.85
2023-02-12T12:25:58.367Z,29.25
2023-02-12T12:28:36.838Z,33.45
2023-02-12T12:31:13.387Z,32.55
2023-02-12T12:33:50.664Z,33.00
2023-02-12T12:36:44.909Z,30.77
2023-02-12T12:39:27.853Z,25.65
2023-02-12T12:42:20.564Z,31.52
2023-02-12T12:45:14.238Z,27.13
2023-02-12T12:48:02.987Z,23.42
2023-02-12T12:50:58.197Z,23.60
2023-02-12T12:53:43.627Z,21.23
2023-02-12T12:56:30.226Z,14.80
2023-02-12T12:59:30.345Z,20.52
2023-02-12T13:02:33.261Z,20.55
2023-02-12T13:05:24.551Z,19.98
2023-02-12T13:08:09.844Z,21.65
2023-02-12T13:10:49.850Z,17.88
2023-02-12T13:13:29.854Z,13.93
2023-02-12T13:16:14.931Z,12.18
2023-02-12T13:18:58.964Z,12.23
2023-02-12T13:21:46.716Z,14.80
2023-02-12T13:24:31.774Z,14.98
2023-02-12T13:27:08.853Z,15.18
2023-02-12T13:29:47.554Z,9.88
2023-02-12T13:32:26.805Z,12.30
2023-02-12T13:35:01.602Z,14.93
2023-02-12T13:37:41.073Z,15.95
2023-02-12T13:40:17.218Z,15.57
2023-02-12T13:42:56.873Z,14.65
2023-02-12T13:45:41.245Z,16.33
2023-02-12T13:48:35.065Z,20.08
2023-02-12T13:51:16.616Z,19.95
2023-02-12T13:54:02.796Z,20.98
2023-02-12T13:56:42.508Z,19.33
2023-02-12T13:59:41.423Z,15.38
2023-02-12T14:02:49.592Z,17.33
2023-02-12T14:05:27.823Z,18.80
2023-02-12T14:08:05.751Z,22.60
2023-02-12T14:10:41.693Z,21.15
2023-02-12T14:13:20.727Z,20.55
2023-02-12T14:15:56.356Z,57.88
2023-02-12T14:18:35.079Z,21.88
2023-02-12T14:21:39.563Z,20.02
2023-02-12T14:24:52.210Z,18.42
2023-02-12T14:27:30.324Z,16.35
2023-02-12T14:30:31.692Z,23.23
2023-02-12T14:33:20.750Z,20.83
2023-02-12T14:36:20.034Z,22.95
2023-02-12T14:39:03.458Z,21.05
2023-02-12T14:41:43.808Z,20.33
2023-02-12T14:44:47.897Z,19.77
2023-02-12T14:47:53.821Z,21.15
2023-02-12T14:50:32.046Z,22.95
2023-02-12T14:53:23.608Z,19.80
2023-02-12T14:55:59.479Z,17.35
2023-02-12T14:58:33.760Z,19.58
2023-02-12T15:01:07.533Z,19.70
2023-02-12T15:03:44.352Z,18.55
2023-02-12T15:06:19.150Z,20.20
2023-02-12T15:08:57.213Z,21.33
2023-02-12T15:11:42.077Z,21.15
2023-02-12T15:14:20.212Z,20.50
2023-02-12T15:17:00.076Z,15.50
2023-02-12T15:19:40.859Z,19.48
2023-02-12T15:22:23.530Z,16.73
2023-02-12T15:25:15.781Z,17.13
2023-02-12T15:27:51.878Z,19.17
2023-02-12T15:30:27.162Z,20.42
2023-02-12T15:33:04.580Z,17.45
2023-02-12T15:35:41.069Z,20.52
2023-02-12T15:38:21.992Z,19.10
2023-02-12T15:40:56.957Z,16.30
2023-02-12T15:43:35.354Z,18.48
2023-02-12T15:46:17.207Z,19.23
2023-02-12T15:48:50.471Z,16.52
2023-02-12T15:51:30.609Z,13.98
2023-02-12T15:54:07.847Z,12.70
2023-02-12T15:56:42.597Z,15.68
2023-02-12T15:59:22.313Z,16.83
2023-02-12T16:01:58.025Z,18.83
2023-02-12T16:04:33.650Z,18.40
2023-02-12T16:07:08.398Z,19.60
2023-02-12T16:09:42.830Z,20.42
2023-02-12T16:12:19.195Z,19.58
2023-02-12T16:14:55.549Z,16.70
2023-02-12T16:17:30.118Z,20.27
2023-02-12T16:20:06.542Z,16.52
2023-02-12T16:22:41.102Z,19.98
2023-02-12T16:25:18.322Z,17.38
2023-02-12T16:27:57.913Z,19.33
2023-02-12T16:30:38.711Z,18.67
2023-02-12T16:33:36.624Z,16.40
2023-02-12T16:36:14.659Z,16.83
2023-02-12T16:38:49.069Z,20.20
2023-02-12T16:41:27.017Z,16.88
2023-02-12T16:44:25.716Z,20.23
2023-02-12T16:47:02.263Z,20.50
2023-02-12T16:49:35.083Z,20.27
2023-02-12T16:52:29.330Z,18.15
2023-02-12T16:55:02.606Z,17.73
2023-02-12T16:57:35.421Z,21.83
2023-02-12T17:00:09.736Z,19.50
2023-02-12T17:02:44.541Z,19.65
2023-02-12T17:05:18.654Z,17.65
2023-02-12T17:07:51.920Z,22.25
2023-02-12T17:10:25.039Z,20.58
2023-02-12T17:12:57.915Z,21.33
2023-02-12T17:15:35.449Z,22.58
2023-02-12T17:18:11.419Z,23.48
2023-02-12T17:20:46.259Z,21.65
2023-02-12T17:23:19.136Z,21.77
2023-02-12T17:25:52.144Z,21.20
2023-02-12T17:28:25.406Z,28.25
2023-02-12T17:30:58.578Z,27.45
2023-02-12T17:33:32.997Z,22.77
2023-02-12T17:36:06.726Z,21.42
2023-02-12T17:38:39.493Z,21.65
2023-02-12T17:41:12.356Z,23.00
2023-02-12T17:43:46.426Z,22.88
2023-02-12T17:46:21.502Z,26.52
2023-02-12T17:48:55.949Z,26.73
2023-02-12T17:51:29.011Z,23.75
2023-02-12T17:54:01.853Z,23.77
2023-02-12T17:56:34.674Z,23.23
2023-02-12T17:59:07.474Z,23.35
2023-02-12T18:01:42.877Z,23.92
2023-02-12T18:04:17.041Z,25.73
2023-02-12T18:06:49.853Z,24.70
2023-02-12T18:09:22.681Z,25.10
2023-02-12T18:11:55.574Z,25.77
2023-02-12T18:14:28.467Z,21.60
2023-02-12T18:17:01.358Z,23.20
2023-02-12T18:19:35.525Z,25.58
2023-02-12T18:22:08.354Z,25.10
2023-02-12T18:24:41.451Z,21.40
2023-02-12T18:27:15.124Z,21.40
2023-02-12T18:29:48.131Z,19.70
2023-02-12T18:32:20.996Z,24.67
2023-02-12T18:34:55.125Z,24.23
2023-02-12T18:37:27.945Z,24.85
2023-02-12T18:40:00.901Z,20.75
2023-02-12T18:42:33.736Z,28.83
2023-02-12T18:45:07.405Z,25.98
2023-02-12T18:47:40.279Z,26.58
2023-02-12T18:50:14.455Z,25.15
2023-02-12T18:52:47.328Z,21.20
2023-02-12T18:55:20.110Z,26.15
2023-02-12T18:57:53.205Z,24.20
2023-02-12T19:00:26.293Z,26.85
2023-02-12T19:02:59.142Z,26.17
2023-02-12T19:05:33.726Z,27.10
2023-02-12T19:08:06.582Z,26.08
2023-02-12T19:10:40.287Z,27.55
2023-02-12T19:13:13.094Z,25.95
2023-02-12T19:15:46.154Z,24.48
2023-02-12T19:18:19.520Z,25.02
2023-02-12T19:20:53.852Z,27.77
2023-02-12T19:23:26.786Z,27.10
2023-02-12T19:26:03.847Z,33.00
2023-02-12T19:28:38.381Z,22.33
2023-02-12T19:31:14.288Z,27.50
2023-02-12T19:33:49.946Z,30.50
2023-02-12T19:36:25.218Z,25.75
2023-02-12T19:38:58.072Z,29.67
2023-02-12T19:41:40.640Z,26.27
2023-02-12T19:44:16.782Z,30.38
2023-02-12T19:46:51.339Z,31.10
2023-02-12T19:49:26.490Z,26.10
2023-02-12T19:52:00.620Z,29.30
2023-02-12T19:54:33.823Z,33.47
2023-02-12T19:57:09.316Z,35.95
2023-02-12T19:59:42.467Z,36.33
2023-02-12T20:02:15.268Z,33.50
2023-02-12T20:04:48.311Z,35.00
2023-02-12T20:07:22.561Z,36.75
2023-02-12T20:09:55.338Z,32.55
2023-02-12T20:12:28.207Z,32.72
2023-02-12T20:15:02.765Z,32.83
2023-02-12T20:17:35.768Z,32.00
2023-02-12T20:20:10.283Z,32.88
2023-02-12T20:22:44.453Z,33.83
2023-02-12T20:25:17.540Z,31.63
2023-02-12T20:27:51.047Z,32.85
2023-02-12T20:30:24.562Z,37.72
2023-02-12T20:32:57.382Z,37.50
2023-02-12T20:35:31.509Z,39.05
2023-02-12T20:38:05.921Z,35.83
2023-02-12T20:40:39.295Z,41.30
2023-02-12T20:43:12.100Z,40.83
2023-02-12T20:45:45.084Z,42.10
2023-02-12T20:48:19.157Z,36.55
2023-02-12T20:50:51.926Z,38.95
2023-02-12T20:53:26.162Z,32.45
2023-02-12T20:56:02.070Z,35.17
2023-02-12T20:58:35.180Z,40.75
2023-02-12T21:01:10.080Z,39.53
2023-02-12T21:03:43.171Z,37.15
2023-02-12T21:06:16.257Z,43.75
2023-02-12T21:08:51.679Z,37.00
2023-02-12T21:11:26.772Z,34.42
2023-02-12T21:14:20.710Z,32.72
2023-02-12T21:16:56.332Z,33.38
2023-02-12T21:19:29.387Z,42.80
2023-02-12T21:22:02.202Z,35.78
2023-02-12T21:24:36.545Z,36.50
2023-02-12T21:27:09.330Z,33.92
2023-02-12T21:29:42.157Z,34.55
2023-02-12T21:32:15.153Z,39.38
2023-02-12T21:34:48.948Z,38.25
2023-02-12T21:37:21.941Z,37.33
2023-02-12T21:39:56.161Z,37.90
2023-02-12T21:42:30.336Z,46.65
2023-02-12T21:45:03.935Z,47.45
2023-02-12T21:47:37.006Z,54.00
2023-02-12T21:50:14.105Z,58.08
2023-02-12T21:52:54.470Z,47.75
2023-02-12T21:56:04.542Z,45.53
2023-02-12T21:59:06.556Z,49.22
2023-02-12T22:02:15.559Z,55.95
2023-02-12T22:05:23.491Z,51.17
2023-02-12T22:08:04.593Z,54.15
2023-02-12T22:11:02.163Z,82.50
2023-02-12T22:13:35.667Z,61.08
2023-02-12T22:16:10.108Z,62.08
2023-02-12T22:18:44.055Z,59.75
2023-02-12T22:21:30.507Z,52.13
2023-02-12T22:24:12.901Z,52.90
2023-02-12T22:26:47.175Z,51.90
2023-02-12T22:29:21.149Z,52.78
2023-02-12T22:31:55.938Z,52.55
2023-02-12T22:34:28.790Z,52.53
2023-02-12T22:37:01.632Z,56.22
2023-02-12T22:39:34.718Z,53.90
2023-02-12T22:42:09.202Z,50.47
2023-02-12T22:44:42.018Z,50.78
2023-02-12T22:47:14.843Z,55.97
2023-02-12T22:49:47.636Z,52.38
2023-02-12T22:52:20.409Z,48.63
2023-02-12T22:54:53.221Z,77.70
2023-02-12T22:57:27.499Z,130.15
2023-02-12T23:00:00.411Z,85.72
2023-02-12T23:02:33.913Z,78.20
2023-02-12T23:05:06.797Z,108.00
2023-02-12T23:07:39.588Z,142.82
2023-02-12T23:10:12.910Z,123.10
2023-02-12T23:12:47.142Z,95.90
2023-02-12T23:15:19.940Z,151.23
2023-02-12T23:17:53.018Z,141.88
2023-02-12T23:20:25.870Z,165.20
2023-02-12T23:22:59.074Z,434.85
2023-02-12T23:25:31.938Z,267.40
2023-02-12T23:28:06.274Z,334.30
2023-02-12T23:30:39.305Z,248.60
2023-02-12T23:33:12.261Z,451.63
2023-02-12T23:35:45.950Z,268.45
2023-02-12T23:38:18.871Z,284.90
2023-02-12T23:40:51.679Z,554.53
2023-02-12T23:43:25.953Z,459.15
2023-02-12T23:45:58.866Z,412.90
2023-02-12T23:48:31.712Z,317.83
2023-02-12T23:51:04.720Z,276.67
2023-02-12T23:53:37.621Z,307.25
2023-02-12T23:56:10.377Z,306.20
2023-02-12T23:58:44.525Z,294.08
